Time;durP1;ratioP1;P1;durP2;ratioP2;P2;SDS_P1;SDS_P2;PMS_P1;PMS_P2;Temp;Humidity;BMP_temperature;BMP_pressure;BME280_temperature;BME280_humidity;BME280_pressure;Samples;Min_cycle;Max_cycle;Signal;HPM_P1;HPM_P2
2022/05/31 00:00:00;;;;;;;0.88;0.70;;;14.10;91.70;;;;;;4932061;29;20012;-80
2022/05/31 00:02:26;;;;;;;;;;;14.20;91.60;;;;;;4923285;29;20024;-80
2022/05/31 00:04:54;;;;;;;2.25;0.70;;;14.10;91.70;;;;;;4921719;29;19938;-80
2022/05/31 00:07:20;;;;;;;0.60;0.60;;;14.00;91.60;;;;;;4920238;29;20052;-79
2022/05/31 00:09:46;;;;;;;0.97;0.70;;;14.10;91.90;;;;;;4941364;29;20485;-80
2022/05/31 00:12:14;;;;;;;2.00;0.77;;;14.10;91.70;;;;;;4938979;29;20027;-78
2022/05/31 00:14:40;;;;;;;0.70;0.70;;;14.10;91.60;;;;;;4922637;29;20417;-81
2022/05/31 00:17:06;;;;;;;0.60;0.60;;;14.00;91.70;;;;;;4926448;29;20616;-80
2022/05/31 00:19:32;;;;;;;1.08;0.70;;;14.00;92.10;;;;;;4919153;29;20024;-81
2022/05/31 00:22:19;;;;;;;0.70;0.70;;;13.90;91.90;;;;;;4922469;29;20557;-80
2022/05/31 00:24:52;;;;;;;1.27;0.85;;;13.80;92.10;;;;;;4921068;29;20032;-80
2022/05/31 00:27:25;;;;;;;0.63;0.63;;;13.80;92.30;;;;;;4923967;29;20020;-80
2022/05/31 00:29:58;;;;;;;1.05;0.70;;;13.70;92.30;;;;;;4918070;29;20040;-80
2022/05/31 00:32:30;;;;;;;0.60;0.60;;;13.80;92.30;;;;;;4920611;29;20028;-80
2022/05/31 00:35:03;;;;;;;1.17;0.68;;;13.80;92.30;;;;;;4922523;29;20390;-80
2022/05/31 00:37:32;;;;;;;0.80;0.80;;;13.90;92.60;;;;;;4918362;29;20104;-79
2022/05/31 00:39:58;;;;;;;1.98;0.60;;;14.10;92.40;;;;;;4920180;29;20016;-79
2022/05/31 00:42:53;;;;;;;1.98;0.60;;;14.00;92.30;;;;;;4915427;29;20390;-79
2022/05/31 00:45:57;;;;;;;0.85;0.70;;;14.00;92.70;;;;;;4919512;29;20020;-80
2022/05/31 00:48:41;;;;;;;0.80;0.60;;;14.00;92.30;;;;;;4916251;29;20019;-80
2022/05/31 00:51:14;;;;;;;0.50;0.50;;;14.00;92.40;;;;;;4913410;29;20027;-80
2022/05/31 00:54:07;;;;;;;1.20;0.93;;;13.90;92.40;;;;;;4934311;29;20387;-79
2022/05/31 00:56:37;;;;;;;0.73;0.70;;;13.90;92.60;;;;;;4928082;29;20055;-79
2022/05/31 00:59:15;;;;;;;0.52;0.52;;;13.90;93.00;;;;;;4930851;29;20621;-79
2022/05/31 01:01:51;;;;;;;1.40;1.00;;;14.20;92.90;;;;;;4928129;29;20369;-79
2022/05/31 01:04:22;;;;;;;1.45;0.85;;;13.90;92.80;;;;;;4938730;28;20408;-80
2022/05/31 01:06:58;;;;;;;0.77;0.68;;;13.80;93.10;;;;;;4937187;29;20070;-79
2022/05/31 01:09:29;;;;;;;1.95;0.60;;;13.70;93.00;;;;;;4934950;29;20027;-80
2022/05/31 01:12:03;;;;;;;1.75;0.70;;;13.70;93.10;;;;;;4940028;29;20039;-80
2022/05/31 01:14:32;;;;;;;0.73;0.63;;;13.70;93.10;;;;;;4935840;29;20099;-79
2022/05/31 01:17:06;;;;;;;1.85;0.80;;;13.60;93.20;;;;;;4922121;29;20051;-80
2022/05/31 01:22:19;;;;;;;0.60;0.60;;;13.60;93.70;;;;;;4924426;29;20487;-79
2022/05/31 01:25:09;;;;;;;0.75;0.60;;;13.50;93.70;;;;;;4922346;29;20103;-80
2022/05/31 01:28:16;;;;;;;1.42;0.90;;;13.50;93.80;;;;;;4925500;29;20054;-80
2022/05/31 01:30:48;;;;;;;2.83;1.10;;;13.50;93.80;;;;;;4935242;29;20026;-80
2022/05/31 01:33:28;;;;;;;1.15;0.70;;;13.60;94.00;;;;;;4919243;29;20035;-80
2022/05/31 01:36:10;;;;;;;1.00;0.98;;;13.50;94.30;;;;;;4932750;29;20057;-79
2022/05/31 01:38:56;;;;;;;3.20;1.08;;;13.40;94.30;;;;;;4921060;29;20019;-80
2022/05/31 01:41:56;;;;;;;2.35;0.95;;;13.40;94.80;;;;;;4917564;29;20102;-80
2022/05/31 01:44:27;;;;;;;2.33;1.00;;;13.30;95.10;;;;;;4923395;29;20024;-80
2022/05/31 01:46:57;;;;;;;0.88;0.88;;;13.30;95.30;;;;;;4932565;29;20028;-80
2022/05/31 01:49:32;;;;;;;0.98;0.90;;;13.20;95.50;;;;;;4935483;29;20032;-80
2022/05/31 01:52:06;;;;;;;0.80;0.80;;;13.30;95.60;;;;;;4924839;29;20036;-80
2022/05/31 01:54:41;;;;;;;0.70;0.70;;;13.20;95.70;;;;;;4920778;29;20028;-80
2022/05/31 02:00:32;;;;;;;1.35;0.90;;;13.10;96.10;;;;;;4926743;29;20038;-80
2022/05/31 02:03:16;;;;;;;1.10;0.90;;;13.10;96.50;;;;;;4924699;29;20047;-79
2022/05/31 02:05:47;;;;;;;1.33;0.95;;;12.90;96.60;;;;;;4921780;29;20442;-79
2022/05/31 02:08:18;;;;;;;1.27;0.90;;;12.80;97.10;;;;;;4915634;29;20046;-80
2022/05/31 02:10:47;;;;;;;0.90;0.88;;;12.90;97.20;;;;;;4915696;29;20392;-79
2022/05/31 02:13:13;;;;;;;0.82;0.82;;;12.80;97.40;;;;;;4918707;29;20024;-80
2022/05/31 02:15:41;;;;;;;1.08;0.93;;;12.70;97.70;;;;;;4918897;29;20646;-80
2022/05/31 02:18:10;;;;;;;0.70;0.70;;;12.70;97.90;;;;;;4927224;29;20032;-79
2022/05/31 02:20:37;;;;;;;1.85;1.00;;;12.70;97.90;;;;;;4918102;29;20043;-80
2022/05/31 02:23:04;;;;;;;1.15;0.80;;;12.60;98.00;;;;;;4920285;29;20031;-80
2022/05/31 02:25:31;;;;;;;1.38;0.60;;;12.60;98.20;;;;;;4919674;29;20110;-79
2022/05/31 02:27:57;;;;;;;1.42;0.90;;;12.50;98.40;;;;;;4922078;29;20034;-79
2022/05/31 02:30:25;;;;;;;0.90;0.90;;;12.60;98.50;;;;;;4924612;29;20025;-79
2022/05/31 02:32:50;;;;;;;2.60;0.90;;;12.50;98.60;;;;;;4913150;29;20031;-79
2022/05/31 02:35:24;;;;;;;0.80;0.60;;;12.50;98.70;;;;;;4920663;29;20020;-80
2022/05/31 02:37:51;;;;;;;0.85;0.80;;;12.40;98.90;;;;;;4918763;29;20077;-79
2022/05/31 02:40:19;;;;;;;;;;;12.70;99.20;;;;;;4922445;29;20536;-79
2022/05/31 02:42:52;;;;;;;0.80;0.75;;;12.40;99.40;;;;;;4919252;29;19913;-80
2022/05/31 02:45:21;;;;;;;4.53;1.10;;;12.30;99.30;;;;;;4929506;29;20008;-81
2022/05/31 02:47:47;;;;;;;0.57;0.57;;;12.30;99.50;;;;;;4933051;29;20032;-80
2022/05/31 02:50:13;;;;;;;0.90;0.80;;;12.30;99.70;;;;;;4924064;29;20035;-79
2022/05/31 02:52:39;;;;;;;1.60;0.80;;;12.30;99.70;;;;;;4932451;29;20039;-80
2022/05/31 02:55:07;;;;;;;;;;;12.50;99.80;;;;;;4916737;29;20028;-80
2022/05/31 02:57:32;;;;;;;1.33;1.10;;;12.20;99.90;;;;;;4916294;29;19906;-80
2022/05/31 03:00:05;;;;;;;0.87;0.87;;;12.10;99.90;;;;;;4924581;29;20027;-80
2022/05/31 03:02:30;;;;;;;1.48;1.00;;;12.10;99.90;;;;;;4922566;29;20062;-80
2022/05/31 03:04:56;;;;;;;1.07;0.80;;;12.00;99.90;;;;;;4914762;29;20032;-79
2022/05/31 03:07:21;;;;;;;1.23;1.00;;;11.90;99.90;;;;;;4919010;29;20064;-80
2022/05/31 03:09:52;;;;;;;1.47;0.90;;;12.00;99.90;;;;;;4922990;29;20062;-79
2022/05/31 03:12:19;;;;;;;0.70;0.70;;;11.90;99.90;;;;;;4913417;29;20084;-79
2022/05/31 03:14:59;;;;;;;1.90;1.00;;;11.90;99.90;;;;;;4926995;29;20090;-79
2022/05/31 03:17:32;;;;;;;0.80;0.80;;;11.90;99.90;;;;;;4920035;29;20024;-79
2022/05/31 03:20:34;;;;;;;1.00;0.90;;;12.10;99.90;;;;;;4924108;29;20026;-80
2022/05/31 03:23:11;;;;;;;1.30;0.80;;;12.00;99.90;;;;;;4932785;29;20650;-79
2022/05/31 03:25:50;;;;;;;2.25;0.80;;;12.00;99.90;;;;;;4913727;29;20027;-80
2022/05/31 03:28:17;;;;;;;0.88;0.88;;;12.10;99.90;;;;;;4923681;29;20040;-80
2022/05/31 03:30:46;;;;;;;1.20;0.95;;;12.00;99.90;;;;;;4928130;29;20031;-80
2022/05/31 03:33:15;;;;;;;1.38;0.90;;;12.10;99.90;;;;;;4936398;29;20386;-80
2022/05/31 03:35:42;;;;;;;1.60;0.80;;;12.10;99.90;;;;;;4925573;29;20030;-79
2022/05/31 03:38:08;;;;;;;1.30;0.98;;;12.10;99.90;;;;;;4923235;29;20027;-80
2022/05/31 03:40:58;;;;;;;;;;;12.20;99.90;;;;;;4932209;29;20024;-80
2022/05/31 03:43:31;;;;;;;2.05;0.90;;;12.20;99.90;;;;;;4925527;29;19910;-79
2022/05/31 03:45:59;;;;;;;6.72;1.20;;;12.30;99.90;;;;;;4934854;29;20024;-80
2022/05/31 03:48:25;;;;;;;2.05;1.25;;;12.30;99.90;;;;;;4922265;29;20054;-80
2022/05/31 03:51:13;;;;;;;2.58;1.10;;;12.30;99.90;;;;;;4921266;29;20465;-80
2022/05/31 03:53:43;;;;;;;1.55;0.98;;;12.30;99.90;;;;;;4916796;29;20040;-80
2022/05/31 03:56:12;;;;;;;1.33;1.00;;;12.40;99.90;;;;;;4924098;29;20111;-80
2022/05/31 03:58:40;;;;;;;2.80;1.00;;;12.40;99.90;;;;;;4934947;29;20091;-79
2022/05/31 04:01:12;;;;;;;2.78;1.35;;;12.60;99.90;;;;;;4916029;29;20103;-80
2022/05/31 04:03:39;;;;;;;1.50;1.02;;;12.80;99.90;;;;;;4919570;29;20790;-80
2022/05/31 04:06:04;;;;;;;;;;;12.80;99.90;;;;;;4929694;28;20096;-80
2022/05/31 04:08:37;;;;;;;1.35;1.25;;;12.90;99.90;;;;;;4924833;29;19942;-80
2022/05/31 04:11:05;;;;;;;2.03;0.90;;;12.90;99.90;;;;;;4940201;29;20401;-80
2022/05/31 04:13:33;;;;;;;1.20;0.90;;;12.90;99.90;;;;;;4928852;29;20024;-80
2022/05/31 04:32:57;;;;;;;2.03;1.40;;;13.80;99.90;;;;;;4909303;29;20079;-78
2022/05/31 04:35:25;;;;;;;1.35;1.25;;;14.00;99.90;;;;;;4915045;29;20043;-77
2022/05/31 04:37:50;;;;;;;2.85;1.77;;;14.10;99.90;;;;;;4909153;29;20030;-78
2022/05/31 04:40:18;;;;;;;2.60;1.80;;;14.30;99.90;;;;;;4914215;29;20662;-78
2022/05/31 04:42:46;;;;;;;4.47;1.85;;;14.40;99.90;;;;;;4911461;29;20027;-78
2022/05/31 04:45:14;;;;;;;2.08;1.85;;;14.50;99.90;;;;;;4929900;29;20015;-79
2022/05/31 04:47:43;;;;;;;1.50;1.40;;;14.50;99.90;;;;;;4910472;29;21335;-79
2022/05/31 04:50:11;;;;;;;1.60;1.50;;;14.70;99.90;;;;;;4916597;29;20122;-79
2022/05/31 04:52:37;;;;;;;1.88;1.48;;;14.80;99.90;;;;;;4916900;29;20530;-80
2022/05/31 04:55:04;;;;;;;2.90;1.75;;;14.90;99.80;;;;;;4915735;29;20034;-80
2022/05/31 04:57:31;;;;;;;2.78;1.58;;;14.90;99.50;;;;;;4921319;29;20477;-79
2022/05/31 05:00:06;;;;;;;;;;;15.00;99.30;;;;;;4910576;29;20686;-79
2022/05/31 05:02:32;;;;;;;2.05;1.63;;;14.70;99.40;;;;;;4930931;29;19907;-80
2022/05/31 05:04:58;;;;;;;2.13;1.90;;;14.80;99.90;;;;;;4927054;29;20027;-81
2022/05/31 05:07:27;;;;;;;3.27;2.30;;;14.80;99.90;;;;;;4936495;29;20033;-83
2022/05/31 05:09:53;;;;;;;2.40;2.05;;;14.90;99.90;;;;;;4920777;29;20119;-80
2022/05/31 05:12:19;;;;;;;3.53;2.10;;;15.00;99.90;;;;;;4935281;29;20055;-80
2022/05/31 05:14:46;;;;;;;1.98;1.85;;;14.90;99.70;;;;;;4917773;29;20103;-80
2022/05/31 05:17:13;;;;;;;4.85;2.58;;;14.80;99.90;;;;;;4932282;29;20086;-79
2022/05/31 05:19:40;;;;;;;3.92;2.35;;;15.10;99.90;;;;;;4917043;29;20023;-80
2022/05/31 05:22:05;;;;;;;;;;;15.30;99.90;;;;;;4918759;29;20028;-83
2022/05/31 05:24:31;;;;;;;3.22;2.30;;;15.50;99.80;;;;;;4920367;29;20005;-79
2022/05/31 05:27:06;;;;;;;3.23;2.30;;;15.70;99.10;;;;;;4915693;29;20662;-80
2022/05/31 05:32:17;;;;;;;4.97;2.78;;;16.00;98.80;;;;;;4918220;29;20080;-76
2022/05/31 05:34:43;;;;;;;4.50;3.05;;;16.20;98.60;;;;;;4908146;29;20043;-77
2022/05/31 05:37:11;;;;;;;3.92;2.17;;;16.30;98.40;;;;;;4928836;29;20024;-76
2022/05/31 05:39:39;;;;;;;3.00;2.05;;;16.50;97.00;;;;;;4907074;29;20086;-76
2022/05/31 05:42:05;;;;;;;7.50;2.38;;;16.30;96.70;;;;;;4912160;29;20023;-76
2022/05/31 05:44:35;;;;;;;3.58;2.13;;;16.50;96.40;;;;;;4928042;29;20096;-76
2022/05/31 05:47:10;;;;;;;2.88;2.08;;;16.50;96.20;;;;;;4924485;29;20583;-76
2022/05/31 05:49:38;;;;;;;3.55;2.20;;;17.10;95.70;;;;;;4916385;29;20032;-76
2022/05/31 05:52:08;;;;;;;5.30;1.88;;;18.00;93.70;;;;;;4914783;29;20067;-76
2022/05/31 05:54:45;;;;;;;5.18;2.00;;;18.50;92.90;;;;;;4911244;29;20663;-76
2022/05/31 05:57:12;;;;;;;1.70;1.60;;;20.30;90.50;;;;;;4917311;29;20027;-76
2022/05/31 05:59:37;;;;;;;2.75;1.85;;;21.60;86.90;;;;;;4911811;29;20036;-76
2022/05/31 06:02:14;;;;;;;4.35;2.13;;;22.10;80.70;;;;;;4908441;29;20072;-76
2022/05/31 06:04:46;;;;;;;4.45;2.65;;;23.20;76.90;;;;;;4905709;29;20035;-77
2022/05/31 06:07:26;;;;;;;5.00;2.50;;;23.70;74.60;;;;;;4911895;29;20028;-77
2022/05/31 06:10:24;;;;;;;5.43;2.92;;;23.60;73.30;;;;;;4907552;29;20023;-76
2022/05/31 06:13:26;;;;;;;4.63;2.92;;;22.60;75.10;;;;;;4902258;29;20146;-76
2022/05/31 06:15:55;;;;;;;5.50;3.40;;;21.30;77.90;;;;;;4906714;29;20526;-76
2022/05/31 06:18:36;;;;;;;7.55;3.65;;;20.50;80.70;;;;;;4915996;29;20039;-78
2022/05/31 06:21:06;;;;;;;9.95;3.85;;;20.50;80.10;;;;;;4910862;29;20020;-76
2022/05/31 06:23:33;;;;;;;6.95;3.80;;;21.70;78.80;;;;;;4915587;29;20047;-79
2022/05/31 06:26:02;;;;;;;9.77;5.13;;;22.90;73.30;;;;;;4910108;29;20067;-79
2022/05/31 06:28:28;;;;;;;5.63;2.97;;;24.30;69.10;;;;;;4916209;29;20039;-80
2022/05/31 06:31:00;;;;;;;5.10;3.38;;;25.70;64.70;;;;;;4907521;29;20350;-79
2022/05/31 06:33:26;;;;;;;5.72;2.70;;;26.70;61.50;;;;;;4927365;29;20054;-80
2022/05/31 06:35:53;;;;;;;4.30;2.20;;;28.10;56.60;;;;;;4906831;29;20418;-77
2022/05/31 06:38:21;;;;;;;3.58;1.63;;;29.50;53.10;;;;;;4913313;29;20178;-78
2022/05/31 06:40:55;;;;;;;2.78;1.35;;;29.90;50.00;;;;;;4909032;29;20038;-80
2022/05/31 06:43:23;;;;;;;2.15;1.40;;;30.00;47.30;;;;;;4912312;29;20046;-77
2022/05/31 06:45:51;;;;;;;2.70;1.50;;;29.40;47.60;;;;;;4909862;29;20024;-78
2022/05/31 06:48:19;;;;;;;2.85;1.20;;;29.00;48.10;;;;;;4910357;29;20658;-80
2022/05/31 06:50:44;;;;;;;3.00;1.30;;;27.00;48.60;;;;;;4902713;29;20555;-80
2022/05/31 06:58:50;;;;;;;1.30;1.20;;;25.90;50.70;;;;;;4916132;29;20052;-78
2022/05/31 07:01:16;;;;;;;2.05;1.30;;;25.30;52.00;;;;;;4913636;29;20023;-78
2022/05/31 07:03:42;;;;;;;2.55;1.30;;;25.00;51.40;;;;;;4923020;29;20036;-80
2022/05/31 07:06:14;;;;;;;;;;;25.50;52.10;;;;;;4916078;29;20107;-80
2022/05/31 07:08:41;;;;;;;1.52;1.10;;;26.20;50.50;;;;;;4901456;29;19921;-79
2022/05/31 07:11:21;;;;;;;1.08;1.02;;;26.00;50.30;;;;;;4913383;29;20035;-78
2022/05/31 07:13:48;;;;;;;2.72;1.40;;;26.50;50.00;;;;;;4913600;29;20513;-78
2022/05/31 07:16:15;;;;;;;1.88;1.10;;;27.40;48.20;;;;;;4913430;29;20112;-79
2022/05/31 07:18:41;;;;;;;1.40;1.02;;;27.10;48.50;;;;;;4924284;29;20394;-79
2022/05/31 07:21:17;;;;;;;2.45;1.38;;;27.70;48.00;;;;;;4913290;29;20020;-78
2022/05/31 07:23:47;;;;;;;3.08;1.27;;;27.60;47.80;;;;;;4907048;29;20035;-80
2022/05/31 07:26:13;;;;;;;3.10;1.40;;;28.20;47.40;;;;;;4915392;29;20031;-79
2022/05/31 07:28:41;;;;;;;1.95;1.20;;;28.90;46.70;;;;;;4911628;29;20040;-79
2022/05/31 07:31:08;;;;;;;2.38;0.93;;;29.70;44.80;;;;;;4916255;29;20067;-79
2022/05/31 07:33:39;;;;;;;3.67;1.38;;;29.70;44.00;;;;;;4909707;29;20052;-79
2022/05/31 07:36:06;;;;;;;1.85;0.82;;;28.70;43.60;;;;;;4912309;29;20091;-77
2022/05/31 07:38:39;;;;;;;0.95;0.80;;;27.90;45.30;;;;;;4925028;29;20024;-76
2022/05/31 07:41:09;;;;;;;1.48;0.98;;;28.60;44.00;;;;;;4919012;29;20024;-78
2022/05/31 07:43:38;;;;;;;1.63;1.20;;;29.60;44.40;;;;;;4916298;29;20055;-78
2022/05/31 07:46:13;;;;;;;3.22;1.23;;;30.10;43.50;;;;;;4924376;28;20028;-77
2022/05/31 07:48:39;;;;;;;2.88;1.05;;;28.70;43.20;;;;;;4913890;29;20028;-79
2022/05/31 07:51:07;;;;;;;1.48;1.10;;;29.30;44.50;;;;;;4925346;29;20043;-79
2022/05/31 07:53:33;;;;;;;1.02;0.93;;;28.80;44.10;;;;;;4904114;29;20024;-80
2022/05/31 07:56:00;;;;;;;3.90;1.42;;;28.80;44.00;;;;;;4900572;29;20524;-78
2022/05/31 07:58:43;;;;;;;1.80;1.13;;;28.00;44.40;;;;;;4916149;29;20516;-80
2022/05/31 08:01:13;;;;;;;1.67;0.95;;;27.60;45.90;;;;;;4907158;29;20477;-79
2022/05/31 08:03:40;;;;;;;3.33;1.17;;;27.20;46.20;;;;;;4909927;29;20042;-80
2022/05/31 08:06:11;;;;;;;2.50;1.10;;;26.60;47.20;;;;;;4908496;29;20106;-80
2022/05/31 08:08:38;;;;;;;1.65;1.10;;;25.70;47.70;;;;;;4913267;29;20024;-80
2022/05/31 08:11:19;;;;;;;1.20;1.10;;;24.90;49.80;;;;;;4906141;29;20032;-82
2022/05/31 08:13:46;;;;;;;2.22;1.30;;;26.10;48.70;;;;;;4923113;29;20417;-80
2022/05/31 08:16:16;;;;;;;2.15;1.30;;;26.80;47.30;;;;;;4912502;29;20031;-80
2022/05/31 08:18:45;;;;;;;3.08;1.30;;;26.80;47.80;;;;;;4911026;29;20028;-79
2022/05/31 08:21:19;;;;;;;2.33;1.30;;;26.00;47.60;;;;;;4930302;29;20994;-79
2022/05/31 08:23:46;;;;;;;1.30;0.80;;;24.70;50.10;;;;;;4914218;29;20034;-80
2022/05/31 08:26:16;;;;;;;2.08;1.02;;;24.90;51.30;;;;;;4925446;29;20051;-80
2022/05/31 08:28:43;;;;;;;3.28;1.52;;;25.90;50.00;;;;;;4914244;29;20028;-81
2022/05/31 08:31:11;;;;;;;1.02;0.93;;;25.40;49.40;;;;;;4932822;29;20035;-81
2022/05/31 08:33:43;;;;;;;3.97;1.40;;;24.90;50.50;;;;;;4919050;29;20028;-81
2022/05/31 08:36:11;;;;;;;3.70;1.00;;;25.90;49.20;;;;;;4914688;29;20119;-80
2022/05/31 08:38:43;;;;;;;3.25;1.38;;;26.20;49.40;;;;;;4923382;29;20520;-79
2022/05/31 08:41:21;;;;;;;2.30;1.50;;;27.10;48.40;;;;;;4913297;29;20117;-80
2022/05/31 08:43:58;;;;;;;3.42;1.20;;;25.90;49.30;;;;;;4912457;29;20157;-79
2022/05/31 08:46:42;;;;;;;2.47;1.40;;;26.20;49.70;;;;;;4913937;29;20521;-82
2022/05/31 08:49:12;;;;;;;2.75;1.70;;;25.70;50.90;;;;;;4908396;29;20036;-80
2022/05/31 08:51:54;;;;;;;4.13;1.70;;;25.70;51.00;;;;;;4919638;29;20039;-81
2022/05/31 08:57:28;;;;;;;3.53;1.95;;;25.00;53.10;;;;;;4906001;29;20031;-82
2022/05/31 09:00:06;;;;;;;5.00;1.83;;;25.10;52.90;;;;;;4931265;29;20583;-78
2022/05/31 09:02:40;;;;;;;2.03;1.80;;;26.40;52.10;;;;;;4921462;29;20032;-79
2022/05/31 09:05:25;;;;;;;3.28;2.10;;;27.00;52.30;;;;;;4914475;29;20537;-79
2022/05/31 09:08:04;;;;;;;3.53;1.77;;;28.00;50.60;;;;;;4913877;29;20023;-80
2022/05/31 09:10:37;;;;;;;1.58;1.42;;;27.80;51.40;;;;;;4909786;29;20019;-78
2022/05/31 09:13:25;;;;;;;2.15;1.75;;;27.00;51.50;;;;;;4914778;29;20035;-78
2022/05/31 09:15:59;;;;;;;2.13;1.90;;;25.50;53.60;;;;;;4917026;29;20521;-78
2022/05/31 09:18:50;;;;;;;3.90;1.70;;;25.10;54.60;;;;;;4909698;29;20047;-80
2022/05/31 09:21:37;;;;;;;3.42;1.42;;;25.90;52.90;;;;;;4905597;29;20020;-82
2022/05/31 09:24:10;;;;;;;4.53;1.25;;;25.80;54.10;;;;;;4914265;29;20023;-79
2022/05/31 09:27:14;;;;;;;1.20;1.10;;;26.90;53.50;;;;;;4922149;29;20161;-78
2022/05/31 09:30:09;;;;;;;1.88;1.10;;;29.20;51.00;;;;;;4926963;29;20115;-80
2022/05/31 09:32:47;;;;;;;1.25;1.00;;;27.60;51.30;;;;;;4924806;29;20032;-78
2022/05/31 09:35:36;;;;;;;1.70;1.10;;;28.30;49.60;;;;;;4920391;29;20588;-78
2022/05/31 09:38:40;;;;;;;2.42;1.00;;;28.50;48.10;;;;;;4913621;29;20063;-77
2022/05/31 09:41:36;;;;;;;2.22;1.30;;;28.70;48.80;;;;;;4833981;29;20029;-77
2022/05/31 09:44:11;;;;;;;1.38;1.00;;;28.20;48.00;;;;;;4914695;29;20103;-80
2022/05/31 09:47:03;;;;;;;0.70;0.70;;;27.80;47.50;;;;;;4923938;28;20982;-80
2022/05/31 09:49:47;;;;;;;1.25;1.10;;;27.10;48.30;;;;;;4906932;29;20485;-79
2022/05/31 09:52:22;;;;;;;2.63;1.15;;;26.50;50.50;;;;;;4925122;29;20028;-80
2022/05/31 09:58:36;;;;;;;2.17;1.00;;;27.80;49.00;;;;;;4876144;29;20171;-80
2022/05/31 10:01:22;;;;;;;2.45;1.02;;;27.50;48.20;;;;;;4923696;29;20032;-80
2022/05/31 10:03:54;;;;;;;1.55;0.77;;;26.70;48.20;;;;;;4912520;29;20074;-80
2022/05/31 10:06:30;;;;;;;1.75;0.90;;;26.60;49.80;;;;;;4908758;29;20596;-80
2022/05/31 10:09:13;;;;;;;1.52;0.95;;;26.20;49.70;;;;;;4915297;29;20366;-81
2022/05/31 10:11:48;;;;;;;1.17;0.90;;;27.00;50.40;;;;;;4905991;29;20032;-79
2022/05/31 10:14:25;;;;;;;1.70;0.80;;;28.20;48.00;;;;;;4912089;29;20027;-80
2022/05/31 10:16:54;;;;;;;0.90;0.90;;;28.50;47.60;;;;;;4910411;29;20075;-80
2022/05/31 10:19:25;;;;;;;1.20;1.10;;;28.20;47.30;;;;;;4911876;29;20469;-79
2022/05/31 10:21:51;;;;;;;3.25;1.20;;;27.90;48.60;;;;;;4913007;29;20024;-79
2022/05/31 10:24:26;;;;;;;1.17;0.75;;;28.20;47.40;;;;;;4910423;29;20028;-82
2022/05/31 10:27:13;;;;;;;1.40;0.90;;;27.30;48.70;;;;;;4910848;29;20098;-79
2022/05/31 10:29:47;;;;;;;2.65;0.82;;;27.00;48.80;;;;;;4909035;29;20709;-80
2022/05/31 10:32:34;;;;;;;1.95;1.00;;;27.50;48.60;;;;;;4903773;29;20042;-80
2022/05/31 10:35:36;;;;;;;1.50;0.88;;;27.90;48.70;;;;;;4908438;29;20036;-79
2022/05/31 10:38:16;;;;;;;1.67;1.08;;;28.00;49.10;;;;;;4918444;29;20032;-80
2022/05/31 10:41:00;;;;;;;2.78;1.00;;;28.00;48.50;;;;;;4922688;29;20039;-79
2022/05/31 10:43:32;;;;;;;1.38;1.08;;;27.50;49.60;;;;;;4909931;29;20040;-81
2022/05/31 10:46:20;;;;;;;2.55;0.95;;;26.20;50.40;;;;;;4924558;28;20028;-80
2022/05/31 10:48:52;;;;;;;1.45;0.90;;;26.00;51.60;;;;;;4920187;29;20035;-80
2022/05/31 10:52:04;;;;;;;1.30;1.20;;;26.40;50.80;;;;;;4928714;29;20051;-81
2022/05/31 10:55:09;;;;;;;1.65;1.20;;;26.00;51.90;;;;;;4903609;29;20035;-78
2022/05/31 10:58:35;;;;;;;1.73;1.20;;;24.30;54.00;;;;;;4865867;29;20037;-78
2022/05/31 11:01:41;;;;;;;1.40;1.30;;;24.00;54.70;;;;;;4863767;29;20032;-77
2022/05/31 11:04:21;;;;;;;1.33;1.23;;;24.20;54.80;;;;;;4879125;29;20525;-78
2022/05/31 11:07:15;;;;;;;1.48;0.88;;;24.40;55.50;;;;;;4910493;29;20066;-75
2022/05/31 11:13:44;;;;;;;3.10;1.00;;;23.80;56.50;;;;;;4897793;29;20119;-78
2022/05/31 11:16:26;;;;;;;1.02;1.00;;;23.20;57.90;;;;;;4917687;29;20118;-77
2022/05/31 11:19:15;;;;;;;1.30;1.17;;;23.20;58.10;;;;;;4909667;29;20024;-78
2022/05/31 11:21:54;;;;;;;3.78;1.20;;;22.90;57.90;;;;;;4921243;29;20020;-78
2022/05/31 11:24:41;;;;;;;1.33;0.90;;;22.90;58.70;;;;;;4910495;29;20020;-77
2022/05/31 11:27:20;;;;;;;2.05;1.00;;;23.10;57.40;;;;;;4903611;29;21086;-79
2022/05/31 11:30:11;;;;;;;1.30;0.90;;;23.40;57.50;;;;;;4908240;29;20035;-77
2022/05/31 11:32:57;;;;;;;1.25;0.98;;;23.30;57.30;;;;;;4920689;29;20030;-78
2022/05/31 11:35:30;;;;;;;1.15;0.90;;;23.50;56.60;;;;;;4913130;29;20103;-77
2022/05/31 11:38:35;;;;;;;2.05;1.10;;;23.20;58.40;;;;;;4910864;29;20035;-77
2022/05/31 11:41:27;;;;;;;1.35;1.15;;;23.20;58.30;;;;;;4910116;29;20031;-77
2022/05/31 11:44:27;;;;;;;1.60;1.30;;;23.10;58.50;;;;;;4905080;29;20077;-78
2022/05/31 11:47:21;;;;;;;1.73;1.08;;;23.20;58.50;;;;;;4920083;29;20073;-78
2022/05/31 11:50:34;;;;;;;1.23;1.10;;;23.00;59.00;;;;;;4903699;29;20367;-78
2022/05/31 11:53:06;;;;;;;3.00;0.88;;;22.90;59.70;;;;;;4839971;29;20038;-79
2022/05/31 11:56:00;;;;;;;1.52;1.20;;;23.00;59.20;;;;;;4897716;29;20040;-79
2022/05/31 11:58:44;;;;;;;1.95;1.20;;;23.10;60.00;;;;;;4873729;29;20192;-77
2022/05/31 12:01:13;;;;;;;1.30;1.02;;;23.30;60.60;;;;;;4914614;29;20227;-78
2022/05/31 12:03:56;;;;;;;1.92;1.30;;;23.50;60.20;;;;;;4901756;29;20411;-78
2022/05/31 12:06:28;;;;;;;4.32;1.38;;;23.40;60.00;;;;;;4930393;29;20023;-77
2022/05/31 12:09:16;;;;;;;2.20;1.20;;;23.40;60.20;;;;;;4899781;29;20024;-78
2022/05/31 12:11:51;;;;;;;2.08;1.23;;;23.50;59.30;;;;;;4909656;29;20023;-78
2022/05/31 12:14:19;;;;;;;2.08;1.20;;;23.40;59.80;;;;;;4914514;29;20026;-78
2022/05/31 12:16:46;;;;;;;2.42;1.30;;;23.30;60.20;;;;;;4910443;29;20032;-77
2022/05/31 12:19:32;;;;;;;1.20;1.10;;;23.30;60.10;;;;;;4910642;29;20174;-78
2022/05/31 12:22:26;;;;;;;3.03;1.55;;;23.50;60.70;;;;;;4907110;29;20137;-77
2022/05/31 12:25:07;;;;;;;3.13;1.10;;;23.50;60.10;;;;;;4903761;29;20104;-77
2022/05/31 12:27:45;;;;;;;1.30;1.00;;;23.60;60.30;;;;;;4905778;29;20031;-77
2022/05/31 12:30:25;;;;;;;2.70;1.73;;;23.70;59.10;;;;;;4916443;29;20058;-78
2022/05/31 12:32:54;;;;;;;2.40;1.27;;;23.50;59.60;;;;;;4906672;29;20474;-78
2022/05/31 12:35:53;;;;;;;1.77;1.30;;;23.50;60.00;;;;;;4913930;29;20042;-78
2022/05/31 12:38:22;;;;;;;2.20;1.02;;;23.50;59.00;;;;;;4910762;29;20727;-77
2022/05/31 12:40:52;;;;;;;1.20;1.10;;;23.40;60.00;;;;;;4903319;29;20072;-78
2022/05/31 12:43:53;;;;;;;3.45;1.20;;;23.50;58.80;;;;;;4912635;29;20171;-78
2022/05/31 12:46:40;;;;;;;1.58;0.95;;;23.70;60.20;;;;;;4910541;29;20016;-78
2022/05/31 12:49:20;;;;;;;1.45;0.90;;;23.90;59.40;;;;;;4911425;29;20038;-79
2022/05/31 12:52:11;;;;;;;1.00;0.93;;;23.90;58.50;;;;;;4906558;29;20500;-78
2022/05/31 12:54:48;;;;;;;1.95;1.17;;;23.80;57.50;;;;;;4910304;29;20095;-76
2022/05/31 13:00:47;;;;;;;1.95;1.08;;;23.80;57.80;;;;;;4918131;29;20062;-76
2022/05/31 13:03:34;;;;;;;1.67;0.98;;;24.00;58.70;;;;;;4912952;29;20032;-76
2022/05/31 13:06:31;;;;;;;1.10;1.00;;;24.00;58.30;;;;;;4927493;29;20665;-78
2022/05/31 13:08:59;;;;;;;2.25;1.10;;;23.90;57.20;;;;;;4880225;29;20652;-79
2022/05/31 13:20:25;;;;;;;1.08;0.88;;;23.80;57.70;;;;;;4916609;29;20075;-78
2022/05/31 13:23:04;;;;;;;1.30;1.05;;;23.70;58.20;;;;;;4909901;29;20060;-78
2022/05/31 13:25:41;;;;;;;2.17;1.10;;;23.70;57.60;;;;;;4915469;29;20024;-79
2022/05/31 13:28:21;;;;;;;2.55;1.05;;;23.80;57.80;;;;;;4929621;29;20737;-78
2022/05/31 13:30:58;;;;;;;1.98;1.00;;;23.80;58.20;;;;;;4908077;29;20028;-77
2022/05/31 13:33:32;;;;;;;1.50;0.90;;;24.00;57.40;;;;;;4916421;29;20019;-78
2022/05/31 13:36:02;;;;;;;1.42;1.00;;;24.00;56.80;;;;;;4915609;29;20023;-78
2022/05/31 13:38:31;;;;;;;1.45;0.95;;;23.90;56.50;;;;;;4910691;29;20020;-78
2022/05/31 13:41:12;;;;;;;0.82;0.80;;;24.10;57.90;;;;;;4919162;29;20027;-76
2022/05/31 13:43:53;;;;;;;7.15;0.98;;;24.20;56.90;;;;;;4927558;29;20039;-75
2022/05/31 13:46:37;;;;;;;0.80;0.80;;;24.20;56.30;;;;;;4913322;29;20062;-75
2022/05/31 13:49:06;;;;;;;1.00;0.88;;;24.20;56.70;;;;;;4916205;29;20031;-75
2022/05/31 13:51:32;;;;;;;0.70;0.70;;;24.10;56.80;;;;;;4911682;29;20035;-76
2022/05/31 13:54:13;;;;;;;0.82;0.70;;;24.00;57.60;;;;;;4914557;29;20031;-76
2022/05/31 13:56:45;;;;;;;1.02;0.93;;;24.10;56.70;;;;;;4915334;29;20061;-76
2022/05/31 13:59:10;;;;;;;2.70;0.90;;;24.00;57.20;;;;;;4930917;29;20803;-75
2022/05/31 14:01:49;;;;;;;2.40;0.80;;;24.00;56.90;;;;;;4923903;29;20032;-76
2022/05/31 14:04:31;;;;;;;3.00;1.50;;;24.00;57.00;;;;;;4917803;29;20032;-77
2022/05/31 14:06:58;;;;;;;2.05;1.00;;;24.10;58.20;;;;;;4908492;29;20684;-78
2022/05/31 14:09:36;;;;;;;2.40;1.00;;;24.10;57.10;;;;;;4913358;29;20028;-78
2022/05/31 14:12:07;;;;;;;1.88;1.05;;;24.20;56.80;;;;;;4914166;29;21457;-78
2022/05/31 14:14:44;;;;;;;2.92;1.00;;;24.20;57.20;;;;;;4909845;29;20067;-78
2022/05/31 14:17:39;;;;;;;1.00;0.80;;;24.10;57.90;;;;;;4910677;29;20154;-77
2022/05/31 14:20:16;;;;;;;2.85;0.98;;;24.10;58.40;;;;;;4917566;29;20044;-78
2022/05/31 14:22:42;;;;;;;1.83;1.00;;;24.10;57.50;;;;;;4908531;29;20027;-77